createdAt,value
2022-11-29T00:00:47.553Z,64.09
2022-11-29T00:03:14.901Z,64.18
2022-11-29T00:05:41.570Z,63.77
2022-11-29T00:08:08.163Z,63.58
2022-11-29T00:10:37.556Z,63.30
2022-11-29T00:13:04.457Z,63.67
2022-11-29T00:15:31.102Z,63.23
2022-11-29T00:17:57.725Z,63.40
2022-11-29T00:20:24.413Z,62.90
2022-11-29T00:22:51.129Z,62.77
2022-11-29T00:25:17.763Z,62.94
2022-11-29T00:27:44.338Z,63.48
2022-11-29T00:30:11.232Z,63.62
2022-11-29T00:32:37.809Z,62.71
2022-11-29T00:35:09.459Z,64.35
2022-11-29T00:37:36.544Z,63.74
2022-11-29T00:40:04.001Z,62.93
2022-11-29T00:42:30.627Z,63.02
2022-11-29T00:44:57.379Z,63.63
2022-11-29T00:47:24.025Z,62.74
2022-11-29T00:49:50.662Z,62.76
2022-11-29T00:52:17.260Z,62.92
2022-11-29T00:54:44.200Z,62.65
2022-11-29T00:57:11.028Z,63.63
2022-11-29T00:59:37.618Z,63.00
2022-11-29T01:02:04.255Z,62.26
2022-11-29T01:04:30.885Z,62.38
2022-11-29T01:06:57.479Z,63.15
2022-11-29T01:09:24.121Z,62.71
2022-11-29T01:11:50.756Z,62.20
2022-11-29T01:14:17.464Z,62.78
2022-11-29T01:16:44.121Z,63.23
2022-11-29T01:19:10.826Z,63.20
2022-11-29T01:21:37.507Z,62.84
2022-11-29T01:24:04.237Z,62.87
2022-11-29T01:26:30.831Z,62.99
2022-11-29T01:31:41.459Z,62.53
2022-11-29T01:34:08.199Z,63.29
2022-11-29T01:36:34.794Z,62.56
2022-11-29T01:39:01.587Z,63.28
2022-11-29T01:41:29.878Z,62.58
2022-11-29T01:44:12.600Z,62.94
2022-11-29T01:46:42.664Z,62.62
2022-11-29T01:49:18.092Z,63.22
2022-11-29T01:51:50.393Z,63.24
2022-11-29T01:54:17.155Z,63.49
2022-11-29T01:56:44.079Z,64.02
2022-11-29T01:59:12.825Z,64.09
2022-11-29T02:01:39.483Z,63.32
2022-11-29T02:04:06.260Z,63.64
2022-11-29T02:06:32.888Z,63.79
2022-11-29T02:08:59.530Z,63.23
2022-11-29T02:11:53.080Z,63.83
2022-11-29T02:14:40.965Z,63.16
2022-11-29T02:17:30.931Z,63.31
2022-11-29T02:20:34.439Z,64.40
2022-11-29T02:23:30.046Z,64.31
2022-11-29T02:26:24.890Z,64.23
2022-11-29T02:29:19.824Z,64.24
2022-11-29T02:31:58.859Z,64.45
2022-11-29T02:34:25.302Z,64.12
2022-11-29T02:37:11.807Z,64.59
2022-11-29T02:39:56.827Z,64.20
2022-11-29T02:42:29.487Z,64.53
2022-11-29T02:45:10.361Z,64.57
2022-11-29T02:47:47.442Z,64.49
2022-11-29T02:50:29.347Z,63.87
2022-11-29T02:53:18.623Z,63.99
2022-11-29T02:56:10.279Z,63.35
2022-11-29T02:58:42.804Z,62.21
2022-11-29T03:01:21.342Z,60.35
2022-11-29T03:04:00.445Z,61.73
2022-11-29T03:06:45.128Z,61.61
2022-11-29T03:09:23.808Z,62.16
2022-11-29T03:12:39.818Z,61.21
2022-11-29T03:15:24.655Z,61.57
2022-11-29T03:17:54.228Z,61.98
2022-11-29T03:20:35.933Z,60.72
2022-11-29T03:23:24.717Z,61.65
2022-11-29T03:25:58.188Z,61.77
2022-11-29T03:28:29.375Z,61.41
2022-11-29T03:31:06.924Z,60.70
2022-11-29T03:33:55.095Z,61.79
2022-11-29T03:36:33.634Z,61.87
2022-11-29T03:39:03.565Z,60.45
2022-11-29T03:41:36.576Z,61.06
2022-11-29T03:44:03.062Z,61.70
2022-11-29T03:46:48.310Z,61.65
2022-11-29T03:49:24.845Z,62.51
2022-11-29T03:52:29.003Z,61.27
2022-11-29T03:54:55.457Z,62.32
2022-11-29T03:57:25.518Z,61.74
2022-11-29T03:59:57.049Z,62.32
2022-11-29T04:02:55.280Z,62.40
2022-11-29T04:05:43.149Z,62.27
2022-11-29T04:08:40.596Z,62.55
2022-11-29T04:11:19.209Z,62.04
2022-11-29T04:13:59.719Z,62.18
2022-11-29T04:16:47.652Z,61.88
2022-11-29T04:19:38.971Z,61.90
2022-11-29T04:22:20.228Z,61.78
2022-11-29T04:25:06.595Z,61.87
2022-11-29T04:27:39.092Z,62.22
2022-11-29T04:30:20.625Z,61.87
2022-11-29T04:33:24.535Z,61.87
2022-11-29T04:36:35.222Z,62.78
2022-11-29T04:39:22.985Z,63.04
2022-11-29T04:41:57.729Z,62.26
2022-11-29T04:45:06.408Z,62.91
2022-11-29T04:48:10.494Z,62.80
2022-11-29T04:50:51.006Z,62.22
2022-11-29T04:53:38.701Z,62.89
2022-11-29T04:56:17.781Z,62.41
2022-11-29T04:58:51.864Z,59.03
2022-11-29T05:01:53.456Z,60.14
2022-11-29T05:04:42.058Z,61.49
2022-11-29T05:07:18.028Z,57.87
2022-11-29T05:10:08.937Z,60.59
2022-11-29T05:12:54.649Z,56.09
2022-11-29T05:15:30.135Z,61.56
2022-11-29T05:18:15.073Z,58.20
2022-11-29T05:20:57.705Z,57.01
2022-11-29T05:23:47.502Z,60.46
2022-11-29T05:26:13.980Z,57.45
2022-11-29T05:28:44.177Z,59.24
2022-11-29T05:31:16.842Z,60.08
2022-11-29T05:33:56.532Z,60.15
2022-11-29T05:36:48.321Z,59.29
2022-11-29T05:39:56.884Z,58.66
2022-11-29T05:42:46.605Z,59.67
2022-11-29T05:45:18.294Z,59.68
2022-11-29T05:48:18.730Z,58.90
2022-11-29T05:51:01.044Z,59.20
2022-11-29T05:53:50.879Z,59.95
2022-11-29T05:56:23.336Z,58.44
2022-11-29T05:59:20.821Z,59.21
2022-11-29T06:01:50.180Z,58.55
2022-11-29T06:04:29.048Z,60.47
2022-11-29T06:07:11.848Z,60.06
2022-11-29T06:09:50.852Z,61.06
2022-11-29T06:12:21.330Z,60.47
2022-11-29T06:15:09.121Z,60.62
2022-11-29T06:18:06.569Z,61.21
2022-11-29T06:20:54.323Z,60.95
2022-11-29T06:23:42.159Z,61.47
2022-11-29T06:26:30.132Z,61.62
2022-11-29T06:29:25.433Z,61.92
2022-11-29T06:32:19.767Z,61.51
2022-11-29T06:35:02.379Z,61.42
2022-11-29T06:37:49.374Z,62.10
2022-11-29T06:40:16.115Z,62.65
2022-11-29T06:42:42.886Z,62.26
2022-11-29T06:45:13.555Z,62.69
2022-11-29T06:47:44.028Z,62.61
2022-11-29T06:50:47.997Z,61.02
2022-11-29T06:53:32.942Z,60.14
2022-11-29T06:56:26.597Z,62.42
2022-11-29T06:58:56.172Z,62.04
2022-11-29T07:01:41.629Z,62.35
2022-11-29T07:04:24.839Z,62.14
2022-11-29T07:06:51.720Z,60.75
2022-11-29T07:09:20.149Z,62.48
2022-11-29T07:11:47.237Z,62.59
2022-11-29T07:14:14.044Z,62.49
2022-11-29T07:16:54.457Z,60.51
2022-11-29T07:19:35.711Z,61.78
2022-11-29T07:22:14.492Z,61.90
2022-11-29T07:24:50.967Z,61.82
2022-11-29T07:27:20.127Z,62.26
2022-11-29T07:29:50.659Z,62.51
2022-11-29T07:32:23.291Z,62.38
2022-11-29T07:35:05.349Z,62.25
2022-11-29T07:37:56.015Z,61.99
2022-11-29T07:40:27.655Z,61.96
2022-11-29T07:43:06.178Z,61.05
2022-11-29T07:45:33.655Z,61.09
2022-11-29T07:48:00.291Z,61.06
2022-11-29T07:50:27.076Z,61.44
2022-11-29T07:52:53.892Z,61.75
2022-11-29T07:55:21.033Z,62.64
2022-11-29T07:57:48.208Z,62.53
2022-11-29T08:00:15.199Z,61.34
2022-11-29T08:02:41.953Z,61.57
2022-11-29T08:05:09.136Z,62.16
2022-11-29T08:07:36.671Z,61.93
2022-11-29T08:10:04.705Z,61.03
2022-11-29T08:12:31.271Z,61.52
2022-11-29T08:14:57.943Z,62.45
2022-11-29T08:17:24.546Z,62.15
2022-11-29T08:19:51.327Z,61.98
2022-11-29T08:22:19.188Z,62.85
2022-11-29T08:24:46.007Z,61.65
2022-11-29T08:27:12.874Z,58.64
2022-11-29T08:29:39.512Z,59.34
2022-11-29T08:32:06.337Z,60.26
2022-11-29T08:34:34.192Z,59.84
2022-11-29T08:37:00.882Z,61.05
2022-11-29T08:39:27.486Z,61.62
2022-11-29T08:41:54.128Z,60.49
2022-11-29T08:44:20.832Z,61.24
2022-11-29T08:46:47.449Z,61.85
2022-11-29T08:49:14.047Z,61.18
2022-11-29T08:51:40.684Z,60.14
2022-11-29T08:54:07.345Z,61.62
2022-11-29T08:59:20.690Z,60.69
2022-11-29T09:01:47.358Z,59.71
2022-11-29T09:04:14.232Z,60.65
2022-11-29T09:06:41.588Z,60.04
2022-11-29T09:09:08.257Z,60.05
2022-11-29T09:11:35.181Z,59.96
2022-11-29T09:14:03.523Z,59.04
2022-11-29T09:16:33.136Z,59.62
2022-11-29T09:18:59.788Z,59.49
2022-11-29T09:21:27.314Z,59.51
2022-11-29T09:23:54.250Z,59.10
2022-11-29T09:26:20.855Z,58.35
2022-11-29T09:28:47.488Z,59.50
2022-11-29T09:31:15.276Z,58.37
2022-11-29T09:33:42.029Z,59.11
2022-11-29T09:36:10.348Z,58.98
2022-11-29T09:38:37.031Z,58.78
2022-11-29T09:41:06.757Z,58.48
2022-11-29T09:43:37.370Z,58.33
2022-11-29T09:46:22.326Z,58.70
2022-11-29T09:49:29.793Z,58.64
2022-11-29T09:52:26.650Z,59.58
2022-11-29T09:55:13.398Z,59.29
2022-11-29T09:57:40.048Z,59.58
2022-11-29T10:00:10.925Z,59.83
2022-11-29T10:02:42.468Z,58.77
2022-11-29T10:05:15.260Z,59.27
2022-11-29T10:07:46.190Z,56.25
2022-11-29T10:10:22.777Z,56.93
2022-11-29T10:12:52.764Z,57.83
2022-11-29T10:15:23.892Z,58.23
2022-11-29T10:18:16.560Z,58.84
2022-11-29T10:20:48.637Z,59.17
2022-11-29T10:23:24.341Z,59.93
2022-11-29T10:25:52.514Z,59.21
2022-11-29T10:28:26.507Z,57.69
2022-11-29T10:30:53.938Z,57.78
2022-11-29T10:33:30.675Z,57.69
2022-11-29T10:35:59.742Z,58.29
2022-11-29T10:38:31.248Z,58.88
2022-11-29T10:41:06.438Z,57.25
2022-11-29T10:43:33.041Z,57.94
2022-11-29T10:45:59.650Z,58.49
2022-11-29T10:48:28.613Z,59.38
2022-11-29T10:50:55.205Z,57.54
2022-11-29T10:53:31.888Z,57.73
2022-11-29T10:56:16.528Z,58.76
2022-11-29T10:58:56.491Z,58.80
2022-11-29T11:01:23.363Z,59.38
2022-11-29T11:03:53.188Z,59.56
2022-11-29T11:06:44.628Z,56.75
2022-11-29T11:09:14.434Z,56.74
2022-11-29T11:11:41.061Z,56.49
2022-11-29T11:14:31.330Z,56.51
2022-11-29T11:17:13.947Z,53.68
2022-11-29T11:19:40.566Z,52.41
2022-11-29T11:22:07.222Z,53.47
2022-11-29T11:24:36.920Z,53.13
2022-11-29T11:27:03.600Z,52.30
2022-11-29T11:29:36.170Z,53.68
2022-11-29T11:32:02.811Z,50.88
2022-11-29T11:34:34.320Z,52.87
2022-11-29T11:37:15.901Z,53.38
2022-11-29T11:39:43.037Z,51.64
2022-11-29T11:42:14.466Z,52.80
2022-11-29T11:44:47.205Z,54.41
2022-11-29T11:47:19.765Z,53.51
2022-11-29T11:49:58.762Z,51.84
2022-11-29T11:52:27.586Z,52.25
2022-11-29T11:54:59.071Z,51.99
2022-11-29T11:57:26.383Z,52.67
2022-11-29T11:59:54.244Z,52.78
2022-11-29T12:02:36.724Z,53.10
2022-11-29T12:05:05.216Z,53.15
2022-11-29T12:08:06.239Z,54.76
2022-11-29T12:10:26.910Z,51.03
2022-11-29T12:12:53.618Z,50.85
2022-11-29T12:15:21.168Z,50.44
2022-11-29T12:17:51.732Z,51.07
2022-11-29T12:20:27.017Z,50.78
2022-11-29T12:22:53.540Z,52.43
2022-11-29T12:25:25.641Z,52.24
2022-11-29T12:27:52.318Z,51.59
2022-11-29T12:30:19.051Z,52.36
2022-11-29T12:33:01.427Z,51.80
2022-11-29T12:35:43.543Z,51.91
2022-11-29T12:38:33.201Z,51.05
2022-11-29T12:41:02.594Z,51.47
2022-11-29T12:44:00.443Z,50.27
2022-11-29T12:46:28.008Z,51.05
2022-11-29T12:49:10.075Z,50.05
2022-11-29T12:51:51.809Z,50.65
2022-11-29T12:54:40.123Z,49.71
2022-11-29T12:57:18.859Z,49.97
2022-11-29T13:00:04.002Z,51.16
2022-11-29T13:02:49.459Z,50.02
2022-11-29T13:05:41.598Z,50.68
2022-11-29T13:08:12.541Z,50.76
2022-11-29T13:10:57.358Z,51.03
2022-11-29T13:13:31.131Z,50.07
2022-11-29T13:16:30.904Z,50.24
2022-11-29T13:19:13.775Z,51.32
2022-11-29T13:21:42.947Z,52.87
2022-11-29T13:24:32.471Z,50.05
2022-11-29T13:27:01.735Z,48.85
2022-11-29T13:29:28.387Z,49.39
2022-11-29T13:31:54.991Z,50.47
2022-11-29T13:34:32.623Z,49.84
2022-11-29T13:37:31.124Z,50.85
2022-11-29T13:40:17.696Z,49.37
2022-11-29T13:43:15.146Z,48.70
2022-11-29T13:45:51.209Z,50.21
2022-11-29T13:48:45.790Z,52.08
2022-11-29T13:51:28.620Z,49.87
2022-11-29T13:53:55.708Z,49.86
2022-11-29T13:56:39.316Z,48.32
2022-11-29T13:59:07.474Z,48.90
2022-11-29T14:01:45.327Z,49.81
2022-11-29T14:04:34.705Z,51.16
2022-11-29T14:07:09.522Z,50.38
2022-11-29T14:09:43.467Z,50.31
2022-11-29T14:12:32.993Z,50.53
2022-11-29T14:15:14.839Z,50.78
2022-11-29T14:18:27.490Z,49.65
2022-11-29T14:20:55.177Z,49.93
2022-11-29T14:23:50.951Z,50.57
2022-11-29T14:26:28.097Z,50.83
2022-11-29T14:28:55.314Z,50.51
2022-11-29T14:31:47.381Z,50.66
2022-11-29T14:34:14.037Z,49.45
2022-11-29T14:37:19.161Z,49.64
2022-11-29T14:39:46.873Z,51.45
2022-11-29T14:42:18.081Z,51.34
2022-11-29T14:44:47.254Z,51.02
2022-11-29T14:47:22.911Z,51.86
2022-11-29T14:49:49.645Z,50.94
2022-11-29T14:52:22.344Z,51.90
2022-11-29T14:54:54.897Z,51.80
2022-11-29T14:57:49.685Z,51.00
2022-11-29T15:00:34.710Z,50.63
2022-11-29T15:03:02.218Z,52.66
2022-11-29T15:05:34.999Z,51.26
2022-11-29T15:08:15.352Z,53.17
2022-11-29T15:10:49.721Z,53.01
2022-11-29T15:13:22.708Z,50.52
2022-11-29T15:16:26.596Z,50.46
2022-11-29T15:19:09.080Z,52.29
2022-11-29T15:22:13.057Z,51.06
2022-11-29T15:25:12.656Z,54.14
2022-11-29T15:28:04.035Z,51.64
2022-11-29T15:30:38.749Z,52.22
2022-11-29T15:33:18.111Z,54.38
2022-11-29T15:35:51.494Z,51.53
2022-11-29T15:38:19.167Z,50.97
2022-11-29T15:40:52.924Z,50.57
2022-11-29T15:43:23.395Z,52.95
2022-11-29T15:45:51.310Z,50.31
2022-11-29T15:48:33.272Z,53.65
2022-11-29T15:51:11.459Z,52.71
2022-11-29T15:53:50.731Z,51.78
2022-11-29T15:56:54.976Z,53.71
2022-11-29T15:59:38.673Z,51.58
2022-11-29T16:02:15.616Z,54.29
2022-11-29T16:04:46.524Z,52.75
2022-11-29T16:07:13.826Z,52.24
2022-11-29T16:09:45.149Z,51.70
2022-11-29T16:12:14.039Z,52.25
2022-11-29T16:14:51.412Z,54.59
2022-11-29T16:17:19.441Z,54.75
2022-11-29T16:19:46.238Z,54.78
2022-11-29T16:22:12.805Z,54.58
2022-11-29T16:25:00.493Z,55.48
2022-11-29T16:27:27.151Z,53.84
2022-11-29T16:29:53.789Z,54.26
2022-11-29T16:32:41.508Z,56.17
2022-11-29T16:35:13.800Z,54.69
2022-11-29T16:37:42.385Z,56.62
2022-11-29T16:40:21.130Z,55.66
2022-11-29T16:43:03.068Z,56.51
2022-11-29T16:45:31.824Z,55.46
2022-11-29T16:47:58.680Z,55.68
2022-11-29T16:50:28.826Z,56.56
2022-11-29T16:52:56.976Z,55.97
2022-11-29T16:55:23.834Z,55.81
2022-11-29T16:57:50.464Z,56.20
2022-11-29T17:00:28.817Z,56.86
2022-11-29T17:02:55.582Z,56.82
2022-11-29T17:05:22.255Z,55.62
2022-11-29T17:07:48.918Z,55.04
2022-11-29T17:10:18.040Z,55.76
2022-11-29T17:12:48.042Z,54.82
2022-11-29T17:15:15.141Z,55.00
2022-11-29T17:17:42.510Z,55.10
2022-11-29T17:20:11.295Z,54.77
2022-11-29T17:22:37.945Z,55.08
2022-11-29T17:25:04.785Z,56.17
2022-11-29T17:27:31.416Z,55.37
2022-11-29T17:29:58.048Z,55.10
2022-11-29T17:32:26.896Z,55.82
2022-11-29T17:34:53.898Z,56.00
2022-11-29T17:37:20.519Z,55.67
2022-11-29T17:39:47.330Z,55.94
2022-11-29T17:42:14.167Z,56.12
2022-11-29T17:44:41.120Z,55.84
2022-11-29T17:47:07.827Z,55.57
2022-11-29T17:49:34.455Z,55.53
2022-11-29T17:52:01.258Z,56.06
2022-11-29T17:54:27.838Z,55.72
2022-11-29T17:56:54.477Z,57.01
2022-11-29T17:59:21.121Z,57.47
2022-11-29T18:01:47.893Z,58.43
2022-11-29T18:04:14.663Z,57.95
2022-11-29T18:06:41.636Z,57.60
2022-11-29T18:09:09.255Z,58.38
2022-11-29T18:11:46.983Z,57.65
2022-11-29T18:14:24.250Z,58.27
2022-11-29T18:16:51.198Z,58.20
2022-11-29T18:19:18.982Z,58.24
2022-11-29T18:21:45.610Z,58.54
2022-11-29T18:24:12.271Z,58.73
2022-11-29T18:26:38.973Z,59.21
2022-11-29T18:29:06.155Z,59.19
2022-11-29T18:31:34.678Z,58.56
2022-11-29T18:34:02.287Z,58.35
2022-11-29T18:36:30.617Z,58.75
2022-11-29T18:39:01.204Z,58.12
2022-11-29T18:41:28.324Z,58.19
2022-11-29T18:43:59.714Z,58.01
2022-11-29T18:46:26.770Z,58.29
2022-11-29T18:48:53.410Z,58.23
2022-11-29T18:51:20.467Z,58.28
2022-11-29T18:53:47.353Z,58.14
2022-11-29T18:56:24.280Z,58.82
2022-11-29T18:58:58.498Z,59.03
2022-11-29T19:01:29.491Z,58.27
2022-11-29T19:03:57.667Z,58.37
2022-11-29T19:06:25.889Z,57.86
2022-11-29T19:08:52.540Z,58.38
2022-11-29T19:11:20.775Z,58.36
2022-11-29T19:13:47.667Z,58.26
2022-11-29T19:16:16.159Z,57.98
2022-11-29T19:18:42.951Z,58.88
2022-11-29T19:21:13.830Z,58.29
2022-11-29T19:23:40.678Z,58.07
2022-11-29T19:26:11.340Z,58.17
2022-11-29T19:28:38.695Z,58.06
2022-11-29T19:31:05.602Z,58.12
2022-11-29T19:33:33.177Z,57.74
2022-11-29T19:36:14.066Z,58.07
2022-11-29T19:38:40.788Z,58.18
2022-11-29T19:41:31.207Z,57.99
2022-11-29T19:43:58.915Z,58.23
2022-11-29T19:46:29.852Z,58.51
2022-11-29T19:48:56.952Z,58.64
2022-11-29T19:51:23.881Z,58.60
2022-11-29T19:53:54.157Z,58.19
2022-11-29T19:56:20.832Z,58.39
2022-11-29T19:58:47.677Z,58.02
2022-11-29T20:01:15.225Z,58.55
2022-11-29T20:03:42.111Z,58.13
2022-11-29T20:06:09.247Z,58.71
2022-11-29T20:08:36.657Z,58.47
2022-11-29T20:11:13.221Z,58.92
2022-11-29T20:13:40.214Z,59.43
2022-11-29T20:16:13.667Z,58.83
2022-11-29T20:18:44.611Z,59.00
2022-11-29T20:21:25.994Z,58.38
2022-11-29T20:24:02.687Z,58.62
2022-11-29T20:26:29.999Z,58.64
2022-11-29T20:28:56.635Z,58.51
2022-11-29T20:31:23.535Z,58.49
2022-11-29T20:33:51.458Z,58.99
2022-11-29T20:36:36.665Z,58.84
2022-11-29T20:39:40.011Z,58.08
2022-11-29T20:42:25.605Z,58.15
2022-11-29T20:44:53.650Z,57.65
2022-11-29T20:47:41.561Z,58.44
2022-11-29T20:50:08.368Z,58.39
2022-11-29T20:52:56.714Z,59.04
2022-11-29T20:55:23.525Z,58.96
2022-11-29T20:57:50.311Z,58.72
2022-11-29T21:00:17.092Z,58.60
2022-11-29T21:02:43.761Z,58.01
2022-11-29T21:05:10.480Z,58.58
2022-11-29T21:07:37.166Z,58.62
2022-11-29T21:10:04.657Z,57.81
2022-11-29T21:12:31.625Z,58.53
2022-11-29T21:14:58.535Z,57.72
2022-11-29T21:17:33.178Z,58.03
2022-11-29T21:20:00.889Z,58.84
2022-11-29T21:22:49.195Z,58.66
2022-11-29T21:25:26.264Z,58.53
2022-11-29T21:27:53.413Z,58.62
2022-11-29T21:30:21.641Z,59.31
2022-11-29T21:32:48.499Z,58.56
2022-11-29T21:35:15.389Z,59.06
2022-11-29T21:37:42.060Z,59.40
2022-11-29T21:40:09.136Z,59.77
2022-11-29T21:42:36.227Z,59.27
2022-11-29T21:45:03.946Z,59.28
2022-11-29T21:47:31.940Z,59.29
2022-11-29T21:49:58.560Z,59.33
2022-11-29T21:52:25.208Z,59.50
2022-11-29T21:54:51.808Z,59.28
2022-11-29T21:57:18.416Z,59.81
2022-11-29T21:59:45.059Z,60.12
2022-11-29T22:02:11.841Z,59.78
2022-11-29T22:04:38.588Z,59.81
2022-11-29T22:07:05.260Z,60.51
2022-11-29T22:09:32.413Z,60.56
2022-11-29T22:11:59.242Z,60.62
2022-11-29T22:14:25.852Z,61.16
2022-11-29T22:16:56.785Z,60.57
2022-11-29T22:19:24.080Z,60.54
2022-11-29T22:21:52.961Z,60.94
2022-11-29T22:24:20.937Z,61.19
2022-11-29T22:26:47.835Z,61.32
2022-11-29T22:29:14.615Z,61.08
2022-11-29T22:31:42.023Z,61.17
2022-11-29T22:34:08.668Z,61.11
2022-11-29T22:36:35.676Z,60.80
2022-11-29T22:39:02.306Z,61.63
2022-11-29T22:41:28.984Z,61.71
2022-11-29T22:43:55.859Z,61.47
2022-11-29T22:46:23.492Z,61.74
2022-11-29T22:48:51.255Z,61.11
2022-11-29T22:51:19.503Z,61.21
2022-11-29T22:53:50.535Z,61.47
2022-11-29T22:56:17.556Z,61.62
2022-11-29T22:58:44.546Z,62.16
2022-11-29T23:01:12.958Z,61.30
2022-11-29T23:03:41.231Z,61.29
2022-11-29T23:06:08.856Z,61.44
2022-11-29T23:08:35.757Z,61.96
2022-11-29T23:11:02.658Z,61.87
2022-11-29T23:13:29.286Z,62.01
2022-11-29T23:15:55.877Z,62.29
2022-11-29T23:18:22.535Z,62.31
2022-11-29T23:20:49.161Z,61.74
2022-11-29T23:23:15.964Z,62.07
2022-11-29T23:25:48.901Z,61.40
2022-11-29T23:28:16.531Z,61.98
2022-11-29T23:30:43.108Z,60.90
2022-11-29T23:33:09.738Z,60.63
2022-11-29T23:35:36.478Z,60.98
2022-11-29T23:38:03.080Z,60.51
2022-11-29T23:40:29.674Z,60.77
2022-11-29T23:42:56.275Z,60.30
2022-11-29T23:45:22.982Z,60.15
2022-11-29T23:47:49.681Z,59.62
2022-11-29T23:50:16.404Z,60.33
2022-11-29T23:52:42.999Z,60.33
2022-11-29T23:55:16.774Z,59.57
2022-11-29T23:57:46.406Z,60.38
